createdAt,value
2022-12-15T04:57:11.748Z,-12.50
2022-12-15T04:59:33.375Z,-12.80
2022-12-15T05:01:54.671Z,-12.70
2022-12-15T05:04:16.442Z,-12.40
2022-12-15T05:06:37.084Z,-12.00
2022-12-15T05:08:58.813Z,-11.90
2022-12-15T05:11:19.643Z,-11.60
2022-12-15T05:13:40.763Z,-11.70
2022-12-15T05:16:02.203Z,-11.70
2022-12-15T05:18:23.203Z,-11.60
2022-12-15T05:20:44.733Z,-11.60
2022-12-15T05:23:11.242Z,-11.60
2022-12-15T05:25:33.125Z,-11.60
2022-12-15T05:27:54.144Z,-11.50
2022-12-15T05:30:15.663Z,-11.50
2022-12-15T05:32:18.680Z,-11.50
2022-12-15T05:34:24.052Z,-11.50
2022-12-15T05:36:26.802Z,-11.50
2022-12-15T05:38:29.713Z,-11.40
2022-12-15T05:40:32.586Z,-11.40
2022-12-15T05:42:35.252Z,-11.30
2022-12-15T05:44:37.930Z,-11.30
2022-12-15T05:46:40.908Z,-11.30
2022-12-15T05:48:43.792Z,-11.30
2022-12-15T05:50:47.074Z,-11.30
2022-12-15T05:52:53.334Z,-11.30
2022-12-15T05:54:57.073Z,-11.30
2022-12-15T05:57:00.474Z,-11.30
2022-12-15T05:59:03.922Z,-11.30
2022-12-15T06:01:15.553Z,-11.30
2022-12-15T06:03:18.195Z,-11.40
2022-12-15T06:05:20.873Z,-11.40
2022-12-15T06:07:23.953Z,-11.40
2022-12-15T06:09:26.731Z,-11.50
2022-12-15T06:11:30.073Z,-11.40
2022-12-15T06:13:35.262Z,-11.50
2022-12-15T06:15:40.279Z,-11.50
2022-12-15T06:17:42.914Z,-11.40
2022-12-15T06:19:46.902Z,-11.30
2022-12-15T06:21:50.623Z,-11.20
2022-12-15T06:23:53.805Z,-11.30
2022-12-15T06:25:57.383Z,-11.20
2022-12-15T06:28:01.853Z,-11.20
2022-12-15T06:30:05.466Z,-11.10
2022-12-15T06:32:08.473Z,-11.10
2022-12-15T06:34:16.537Z,-11.10
2022-12-15T06:36:20.322Z,-11.10
2022-12-15T06:38:23.394Z,-11.10
2022-12-15T06:40:26.001Z,-11.10
2022-12-15T06:42:28.640Z,-11.10
2022-12-15T06:44:31.645Z,-11.00
2022-12-15T06:46:36.012Z,-11.00
2022-12-15T06:48:38.952Z,-10.90
2022-12-15T06:50:42.422Z,-10.90
2022-12-15T06:52:48.592Z,-10.80
2022-12-15T06:54:51.403Z,-10.60
2022-12-15T06:56:53.971Z,-10.40
2022-12-15T06:58:56.893Z,-10.10
2022-12-15T07:01:00.112Z,-9.80
2022-12-15T07:03:08.368Z,-9.60
2022-12-15T07:05:11.003Z,-9.60
2022-12-15T07:07:14.244Z,-9.50
2022-12-15T07:09:17.893Z,-9.40
2022-12-15T07:11:22.166Z,-9.50
2022-12-15T07:13:25.454Z,-9.40
2022-12-15T07:15:28.312Z,-9.50
2022-12-15T07:17:32.729Z,-9.50
2022-12-15T07:19:35.464Z,-9.50
2022-12-15T07:21:41.931Z,-9.50
2022-12-15T07:24:01.476Z,-9.50
2022-12-15T07:26:11.226Z,-9.30
2022-12-15T07:28:14.612Z,-9.30
2022-12-15T07:30:18.352Z,-9.30
2022-12-15T07:32:21.912Z,-9.30
2022-12-15T07:34:25.184Z,-9.30
2022-12-15T07:36:30.903Z,-9.20
2022-12-15T07:38:33.604Z,-9.20
2022-12-15T07:40:36.402Z,-9.20
2022-12-15T07:42:39.643Z,-9.00
2022-12-15T07:44:42.582Z,-8.90
2022-12-15T07:46:47.623Z,-8.80
2022-12-15T07:48:51.240Z,-8.80
2022-12-15T07:51:05.156Z,-8.70
2022-12-15T07:53:10.692Z,-8.60
2022-12-15T07:55:17.181Z,-8.60
2022-12-15T07:57:21.543Z,-8.50
2022-12-15T07:59:26.334Z,-8.30
2022-12-15T08:01:29.885Z,-8.40
2022-12-15T08:03:33.712Z,-8.50
2022-12-15T08:05:37.163Z,-8.50
2022-12-15T08:07:39.963Z,-8.50
2022-12-15T08:09:42.665Z,-8.60
2022-12-15T08:15:42.179Z,-8.50
2022-12-15T08:17:45.532Z,-8.40
2022-12-15T08:19:48.282Z,-8.30
2022-12-15T08:21:51.585Z,-8.20
2022-12-15T08:23:56.644Z,-8.20
2022-12-15T08:26:14.378Z,-8.20
2022-12-15T08:28:17.094Z,-8.10
2022-12-15T08:30:20.295Z,-8.00
2022-12-15T08:32:23.328Z,-8.00
2022-12-15T08:34:26.543Z,-7.80
2022-12-15T08:36:29.503Z,-7.80
2022-12-15T08:38:35.174Z,-7.80
2022-12-15T08:40:38.333Z,-7.90
2022-12-15T08:42:41.274Z,-7.80
2022-12-15T08:44:44.014Z,-7.90
2022-12-15T08:46:47.504Z,-7.90
2022-12-15T08:48:51.647Z,-7.80
2022-12-15T08:50:59.743Z,-7.90
2022-12-15T08:53:30.124Z,-7.80
2022-12-15T08:55:28.343Z,-7.70
2022-12-15T08:57:32.924Z,-7.60
2022-12-15T08:59:37.215Z,-7.70
2022-12-15T09:01:41.701Z,-7.80
2022-12-15T09:03:48.425Z,-7.80
2022-12-15T09:05:52.914Z,-7.90
2022-12-15T09:08:06.192Z,-7.80
2022-12-15T09:10:15.364Z,-7.80
2022-12-15T09:12:24.504Z,-7.70
2022-12-15T09:14:33.514Z,-7.70
2022-12-15T09:16:45.716Z,-7.60
2022-12-15T09:19:01.834Z,-7.60
2022-12-15T09:21:06.923Z,-7.70
2022-12-15T09:23:09.647Z,-7.80
2022-12-15T09:25:12.926Z,-7.70
2022-12-15T09:27:15.505Z,-7.90
2022-12-15T09:29:19.884Z,-7.90
2022-12-15T09:31:41.166Z,-7.70
2022-12-15T09:33:44.744Z,-7.40
2022-12-15T09:35:51.941Z,-7.20
2022-12-15T09:37:54.754Z,-7.20
2022-12-15T09:39:57.344Z,-7.10
2022-12-15T09:42:01.334Z,-6.90
2022-12-15T09:44:04.088Z,-6.80
2022-12-15T09:46:36.299Z,-6.80
2022-12-15T09:48:44.393Z,-6.70
2022-12-15T09:50:49.105Z,-6.40
2022-12-15T09:52:57.113Z,-6.30
2022-12-15T09:55:02.416Z,-6.20
2022-12-15T09:57:20.784Z,-6.10
2022-12-15T09:59:35.751Z,-6.20
2022-12-15T10:02:04.856Z,-6.30
2022-12-15T10:04:29.389Z,-6.40
2022-12-15T10:06:50.785Z,-6.40
2022-12-15T10:09:02.690Z,-6.50
2022-12-15T10:11:16.364Z,-6.60
2022-12-15T10:13:24.634Z,-6.60
2022-12-15T10:15:29.703Z,-6.60
2022-12-15T10:17:50.351Z,-6.60
2022-12-15T10:20:18.085Z,-6.60
2022-12-15T10:22:42.328Z,-6.60
2022-12-15T10:27:28.786Z,-6.70
2022-12-15T10:29:37.147Z,-6.80
2022-12-15T10:32:18.885Z,-6.80
2022-12-15T10:34:37.880Z,-6.70
2022-12-15T10:36:52.365Z,-6.60
2022-12-15T10:38:56.223Z,-6.60
2022-12-15T10:41:13.744Z,-6.50
2022-12-15T10:43:24.955Z,-6.50
2022-12-15T10:45:41.710Z,-6.50
2022-12-15T10:48:03.038Z,-6.40
2022-12-15T10:50:25.063Z,-6.40
2022-12-15T10:52:37.788Z,-6.60
2022-12-15T10:54:46.806Z,-6.60
2022-12-15T10:56:56.463Z,-6.60
2022-12-15T10:59:05.595Z,-6.50
2022-12-15T11:01:17.171Z,-6.60
2022-12-15T11:03:28.078Z,-6.80
2022-12-15T11:05:31.545Z,-6.80
2022-12-15T11:07:36.783Z,-6.80
2022-12-15T11:09:40.613Z,-6.80
2022-12-15T11:12:12.011Z,-6.80
2022-12-15T11:14:24.332Z,-6.70
2022-12-15T11:16:27.270Z,-6.60
2022-12-15T11:18:43.354Z,-6.70
2022-12-15T11:21:12.567Z,-6.60
2022-12-15T11:23:34.381Z,-6.60
2022-12-15T11:25:51.944Z,-6.60
2022-12-15T11:27:58.086Z,-6.60
2022-12-15T11:30:20.825Z,-6.80
2022-12-15T11:32:30.184Z,-6.70
2022-12-15T11:34:44.064Z,-6.80
2022-12-15T11:37:07.503Z,-6.70
2022-12-15T11:39:29.895Z,-6.60
2022-12-15T11:41:52.216Z,-6.60
2022-12-15T11:44:10.755Z,-6.70
2022-12-15T11:46:31.016Z,-6.60
2022-12-15T11:49:07.864Z,-6.60
2022-12-15T11:51:10.781Z,-6.50
2022-12-15T11:53:45.834Z,-6.40
2022-12-15T11:56:07.585Z,-6.20
2022-12-15T11:58:22.265Z,-6.20
2022-12-15T12:00:25.753Z,-6.20
2022-12-15T12:02:44.885Z,-6.10
2022-12-15T12:05:25.872Z,-6.10
2022-12-15T12:07:45.832Z,-6.00
2022-12-15T12:10:11.068Z,-6.00
2022-12-15T12:13:09.219Z,-6.00
2022-12-15T12:15:54.798Z,-5.90
2022-12-15T12:18:23.548Z,-5.90
2022-12-15T12:20:43.839Z,-5.90
2022-12-15T12:22:56.320Z,-5.90
2022-12-15T12:25:10.680Z,-5.90
2022-12-15T12:27:28.979Z,-5.90
2022-12-15T12:29:36.429Z,-5.90
2022-12-15T12:31:45.760Z,-5.80
2022-12-15T12:33:59.403Z,-5.70
2022-12-15T12:36:10.384Z,-5.70
2022-12-15T12:38:15.207Z,-5.70
2022-12-15T12:41:09.568Z,-5.80
2022-12-15T12:43:22.219Z,-5.80
2022-12-15T12:45:38.500Z,-5.80
2022-12-15T12:47:48.679Z,-5.90
2022-12-15T12:50:19.415Z,-5.90
2022-12-15T12:52:33.394Z,-5.90
2022-12-15T12:54:39.408Z,-5.90
2022-12-15T12:56:48.723Z,-6.00
2022-12-15T12:58:54.348Z,-5.90
